createdAt,value
2017-01-17T00:00:48.530Z,102028
2017-01-17T00:01:48.069Z,102024
2017-01-17T00:02:48.668Z,102031
2017-01-17T00:03:48.654Z,102024
2017-01-17T00:04:48.709Z,102027
2017-01-17T00:05:48.172Z,102019
2017-01-17T00:06:48.200Z,102025
2017-01-17T00:07:48.718Z,102026
2017-01-17T00:08:48.244Z,102023
2017-01-17T00:09:48.736Z,102027
2017-01-17T00:10:48.871Z,102025
2017-01-17T00:11:48.380Z,102018
2017-01-17T00:12:49.005Z,102028
2017-01-17T00:13:49.103Z,102030
2017-01-17T00:14:48.548Z,102022
2017-01-17T00:15:49.176Z,102025
2017-01-17T00:16:48.682Z,102023
2017-01-17T00:17:49.323Z,102028
2017-01-17T00:18:48.780Z,102027
2017-01-17T00:19:48.845Z,102030
2017-01-17T00:20:48.917Z,102032
2017-01-17T00:21:50.144Z,102033
2017-01-17T00:22:48.994Z,102031
2017-01-17T00:23:49.606Z,102032
2017-01-17T00:24:49.670Z,102033
2017-01-17T00:25:49.182Z,102035
2017-01-17T00:26:50.469Z,102035
2017-01-17T00:27:49.259Z,102036
2017-01-17T00:28:49.802Z,102035
2017-01-17T00:29:49.392Z,102034
2017-01-17T00:30:49.911Z,102036
2017-01-17T00:31:49.428Z,102036
2017-01-17T00:32:49.380Z,102036
2017-01-17T00:33:49.476Z,102036
2017-01-17T00:34:50.028Z,102038
2017-01-17T00:35:49.561Z,102037
2017-01-17T00:36:49.558Z,102037
2017-01-17T00:37:49.658Z,102040
2017-01-17T00:38:50.235Z,102033
2017-01-17T00:39:49.781Z,102040
2017-01-17T00:40:50.316Z,102039
2017-01-17T00:41:50.409Z,102037
2017-01-17T00:42:49.912Z,102042
2017-01-17T00:43:50.526Z,102039
2017-01-17T00:44:50.153Z,102035
2017-01-17T00:45:50.055Z,102041
2017-01-17T00:46:50.731Z,102043
2017-01-17T00:47:50.687Z,102042
2017-01-17T00:48:50.242Z,102038
2017-01-17T00:49:50.248Z,102047
2017-01-17T00:50:50.869Z,102048
2017-01-17T00:51:50.838Z,102049
2017-01-17T00:52:50.934Z,102049
2017-01-17T00:53:50.971Z,102048
2017-01-17T00:54:50.432Z,102051
2017-01-17T00:55:50.482Z,102050
2017-01-17T00:56:50.502Z,102045
2017-01-17T00:57:50.575Z,102050
2017-01-17T00:58:51.143Z,102049
2017-01-17T00:59:50.678Z,102051
2017-01-17T01:00:50.716Z,102050
2017-01-17T01:01:50.791Z,102046
2017-01-17T01:02:50.867Z,102049
2017-01-17T01:03:51.469Z,102045
2017-01-17T01:04:51.588Z,102040
2017-01-17T01:05:51.528Z,102045
2017-01-17T01:06:51.121Z,102045
2017-01-17T01:07:52.383Z,102051
2017-01-17T01:08:51.218Z,102049
2017-01-17T01:09:51.220Z,102048
2017-01-17T01:10:51.247Z,102050
2017-01-17T01:11:51.257Z,102052
2017-01-17T01:12:51.291Z,102054
2017-01-17T01:13:51.958Z,102048
2017-01-17T01:14:51.408Z,102051
2017-01-17T01:15:51.464Z,102052
2017-01-17T01:16:52.551Z,102049
2017-01-17T01:17:52.131Z,102050
2017-01-17T01:18:51.609Z,102048
2017-01-17T01:19:52.188Z,102057
2017-01-17T01:20:51.677Z,102056
2017-01-17T01:21:52.190Z,102057
2017-01-17T01:22:51.749Z,102059
2017-01-17T01:23:51.822Z,102056
2017-01-17T01:24:52.525Z,102061
2017-01-17T01:25:51.816Z,102058
2017-01-17T01:26:51.816Z,102048
2017-01-17T01:27:51.879Z,102062
2017-01-17T01:28:51.891Z,102062
2017-01-17T01:29:51.918Z,102063
2017-01-17T01:30:52.585Z,102063
2017-01-17T01:31:52.110Z,102070
2017-01-17T01:32:52.107Z,102067
2017-01-17T01:33:52.091Z,102070
2017-01-17T01:34:52.147Z,102073
2017-01-17T01:35:53.262Z,102075
2017-01-17T01:36:52.260Z,102077
2017-01-17T01:37:52.820Z,102078
2017-01-17T01:38:52.278Z,102078
2017-01-17T01:39:53.096Z,102082
2017-01-17T01:40:52.877Z,102080
2017-01-17T01:41:52.451Z,102080
2017-01-17T01:42:53.027Z,102083
2017-01-17T01:43:53.089Z,102088
2017-01-17T01:44:52.672Z,102086
2017-01-17T01:45:53.270Z,102092
2017-01-17T01:46:53.274Z,102089
2017-01-17T01:47:54.106Z,102086
2017-01-17T01:48:53.457Z,102093
2017-01-17T01:49:53.001Z,102096
2017-01-17T01:50:54.116Z,102093
2017-01-17T01:51:53.541Z,102092
2017-01-17T01:52:53.131Z,102089
2017-01-17T01:53:53.695Z,102098
2017-01-17T01:54:53.819Z,102098
2017-01-17T01:55:53.242Z,102097
2017-01-17T01:56:53.905Z,102095
2017-01-17T01:57:53.344Z,102098
2017-01-17T01:58:53.973Z,102095
2017-01-17T01:59:54.043Z,102095
2017-01-17T02:00:54.148Z,102092
2017-01-17T02:01:54.171Z,102095
2017-01-17T02:02:53.713Z,102095
2017-01-17T02:03:53.726Z,102100
2017-01-17T02:04:54.307Z,102099
2017-01-17T02:05:54.357Z,102100
2017-01-17T02:06:53.855Z,102095
2017-01-17T02:07:53.846Z,102102
2017-01-17T02:08:54.001Z,102098
2017-01-17T02:09:54.469Z,102094
2017-01-17T02:10:54.102Z,102102
2017-01-17T02:11:54.031Z,102109
2017-01-17T02:12:54.633Z,102102
2017-01-17T02:13:54.160Z,102110
2017-01-17T02:14:54.698Z,102111
2017-01-17T02:15:54.697Z,102113
2017-01-17T02:16:54.824Z,102105
2017-01-17T02:17:54.855Z,102116
2017-01-17T02:18:54.842Z,102111
2017-01-17T02:19:54.857Z,102113
2017-01-17T02:20:54.428Z,102105
2017-01-17T02:21:54.944Z,102109
2017-01-17T02:22:55.011Z,102113
2017-01-17T02:23:54.455Z,102110
2017-01-17T02:24:54.458Z,102112
2017-01-17T02:25:54.609Z,102112
2017-01-17T02:26:55.209Z,102110
2017-01-17T02:27:55.266Z,102114
2017-01-17T02:28:54.723Z,102109
2017-01-17T02:29:54.778Z,102105
2017-01-17T02:30:54.810Z,102107
2017-01-17T02:31:55.378Z,102108
2017-01-17T02:32:55.455Z,102104
2017-01-17T02:33:54.968Z,102111
2017-01-17T02:34:55.077Z,102110
2017-01-17T02:35:55.528Z,102114
2017-01-17T02:36:55.008Z,102113
2017-01-17T02:37:55.206Z,102117
2017-01-17T02:38:55.652Z,102119
2017-01-17T02:39:55.228Z,102111
2017-01-17T02:40:55.779Z,102115
2017-01-17T02:41:55.830Z,102119
2017-01-17T02:42:55.321Z,102120
2017-01-17T02:43:55.848Z,102122
2017-01-17T02:44:55.355Z,102124
2017-01-17T02:45:55.400Z,102126
2017-01-17T02:46:56.049Z,102126
2017-01-17T02:47:56.077Z,102126
2017-01-17T02:48:55.571Z,102128
2017-01-17T02:49:55.599Z,102128
2017-01-17T02:50:56.272Z,102127
2017-01-17T02:51:56.423Z,102128
2017-01-17T02:53:02.328Z,102131
2017-01-17T02:53:55.856Z,102129
2017-01-17T02:54:55.852Z,102129
2017-01-17T02:55:56.027Z,102132
2017-01-17T02:56:56.506Z,102126
2017-01-17T02:57:56.542Z,102134
2017-01-17T02:58:56.606Z,102133
2017-01-17T02:59:56.657Z,102134
2017-01-17T03:00:56.131Z,102133
2017-01-17T03:01:56.746Z,102133
2017-01-17T03:02:56.820Z,102131
2017-01-17T03:03:56.460Z,102135
2017-01-17T03:04:57.140Z,102133
2017-01-17T03:05:57.043Z,102132
2017-01-17T03:06:56.580Z,102140
2017-01-17T03:07:57.200Z,102139
2017-01-17T03:08:56.765Z,102139
2017-01-17T03:09:57.311Z,102127
2017-01-17T03:10:56.727Z,102136
2017-01-17T03:11:56.787Z,102140
2017-01-17T03:12:57.296Z,102139
2017-01-17T03:13:57.324Z,102142
2017-01-17T03:14:57.405Z,102143
2017-01-17T03:15:56.954Z,102146
2017-01-17T03:16:57.628Z,102140
2017-01-17T03:17:57.057Z,102146
2017-01-17T03:18:57.126Z,102147
2017-01-17T03:19:57.242Z,102149
2017-01-17T03:20:57.264Z,102150
2017-01-17T03:21:57.820Z,102149
2017-01-17T03:22:57.390Z,102150
2017-01-17T03:23:57.887Z,102146
2017-01-17T03:24:57.900Z,102151
2017-01-17T03:25:57.550Z,102160
2017-01-17T03:26:57.516Z,102155
2017-01-17T03:27:57.572Z,102152
2017-01-17T03:28:57.584Z,102158
2017-01-17T03:29:58.105Z,102164
2017-01-17T03:30:57.629Z,102160
2017-01-17T03:31:58.262Z,102163
2017-01-17T03:32:58.299Z,102162
2017-01-17T03:33:59.412Z,102160
2017-01-17T03:34:57.838Z,102161
2017-01-17T03:35:57.912Z,102155
2017-01-17T03:36:58.533Z,102163
2017-01-17T03:37:58.587Z,102169
2017-01-17T03:38:58.689Z,102166
2017-01-17T03:39:58.223Z,102163
2017-01-17T03:40:58.193Z,102166
2017-01-17T03:41:58.229Z,102162
2017-01-17T03:42:58.866Z,102162
2017-01-17T03:43:58.246Z,102162
2017-01-17T03:44:58.815Z,102154
2017-01-17T03:45:58.893Z,102166
2017-01-17T03:47:00.321Z,102163
2017-01-17T03:47:58.408Z,102165
2017-01-17T03:48:58.532Z,102163
2017-01-17T03:49:58.501Z,102170
2017-01-17T03:50:59.130Z,102167
2017-01-17T03:51:59.198Z,102165
2017-01-17T03:52:59.297Z,102165
2017-01-17T03:53:59.288Z,102163
2017-01-17T03:54:59.300Z,102159
2017-01-17T03:55:59.380Z,102161
2017-01-17T03:56:59.397Z,102165
2017-01-17T03:57:59.081Z,102159
2017-01-17T03:58:59.609Z,102161
2017-01-17T03:59:59.660Z,102163
2017-01-17T04:00:59.183Z,102166
2017-01-17T04:01:59.728Z,102159
2017-01-17T04:02:59.824Z,102160
2017-01-17T04:03:59.284Z,102159
2017-01-17T04:04:59.437Z,102159
2017-01-17T04:05:59.437Z,102155
2017-01-17T04:06:59.403Z,102149
2017-01-17T04:08:00.058Z,102149
2017-01-17T04:08:59.625Z,102147
2017-01-17T04:10:00.771Z,102143
2017-01-17T04:11:00.230Z,102149
2017-01-17T04:12:00.238Z,102152
2017-01-17T04:12:59.872Z,102154
2017-01-17T04:14:00.410Z,102156
2017-01-17T04:15:00.472Z,102159
2017-01-17T04:16:00.553Z,102160
2017-01-17T04:17:00.533Z,102160
2017-01-17T04:18:00.598Z,102165
2017-01-17T04:19:00.060Z,102161
2017-01-17T04:20:00.608Z,102164
2017-01-17T04:21:00.727Z,102158
2017-01-17T04:22:00.760Z,102165
2017-01-17T04:23:00.228Z,102162
2017-01-17T04:24:00.814Z,102160
2017-01-17T04:25:00.335Z,102158
2017-01-17T04:26:00.348Z,102156
2017-01-17T04:27:00.896Z,102156
2017-01-17T04:28:01.025Z,102153
2017-01-17T04:29:01.279Z,102153
2017-01-17T04:30:01.147Z,102155
2017-01-17T04:31:01.196Z,102151
2017-01-17T04:32:01.217Z,102150
2017-01-17T04:33:00.732Z,102149
2017-01-17T04:34:01.367Z,102157
2017-01-17T04:35:00.853Z,102155
2017-01-17T04:36:00.923Z,102159
2017-01-17T04:37:00.954Z,102152
2017-01-17T04:38:01.018Z,102157
2017-01-17T04:39:01.510Z,102160
2017-01-17T04:40:01.025Z,102159
2017-01-17T04:41:01.065Z,102161
2017-01-17T04:42:01.152Z,102157
2017-01-17T04:43:01.678Z,102163
2017-01-17T04:44:01.176Z,102161
2017-01-17T04:45:01.791Z,102164
2017-01-17T04:46:01.789Z,102163
2017-01-17T04:47:01.247Z,102159
2017-01-17T04:48:01.319Z,102159
2017-01-17T04:49:01.353Z,102157
2017-01-17T04:50:02.007Z,102155
2017-01-17T04:51:02.559Z,102147
2017-01-17T04:52:02.068Z,102153
2017-01-17T04:53:02.112Z,102155
2017-01-17T04:54:01.669Z,102153
2017-01-17T04:55:02.321Z,102153
2017-01-17T04:56:02.392Z,102155
2017-01-17T04:57:02.490Z,102152
2017-01-17T04:58:01.879Z,102155
2017-01-17T04:59:01.953Z,102149
2017-01-17T05:00:02.542Z,102152
2017-01-17T05:01:02.626Z,102155
2017-01-17T05:02:02.725Z,102151
2017-01-17T05:03:02.176Z,102154
2017-01-17T05:04:02.258Z,102148
2017-01-17T05:05:02.910Z,102156
2017-01-17T05:06:02.424Z,102158
2017-01-17T05:07:02.509Z,102158
2017-01-17T05:08:03.185Z,102154
2017-01-17T05:09:02.625Z,102158
2017-01-17T05:10:02.723Z,102161
2017-01-17T05:11:02.819Z,102159
2017-01-17T05:12:03.356Z,102162
2017-01-17T05:13:03.420Z,102161
2017-01-17T05:14:02.851Z,102159
2017-01-17T05:15:02.945Z,102158
2017-01-17T05:16:03.433Z,102164
2017-01-17T05:17:03.476Z,102163
2017-01-17T05:18:04.252Z,102171
2017-01-17T05:19:03.117Z,102171
2017-01-17T05:20:03.145Z,102172
2017-01-17T05:21:03.284Z,102171
2017-01-17T05:22:03.361Z,102170
2017-01-17T05:23:03.513Z,102177
2017-01-17T05:24:03.467Z,102183
2017-01-17T05:25:03.563Z,102178
2017-01-17T05:26:03.516Z,102189
2017-01-17T05:27:03.579Z,102190
2017-01-17T05:28:04.158Z,102188
2017-01-17T05:29:04.198Z,102184
2017-01-17T05:30:04.347Z,102191
2017-01-17T05:31:03.774Z,102190
2017-01-17T05:32:04.551Z,102189
2017-01-17T05:33:03.863Z,102194
2017-01-17T05:34:04.469Z,102192
2017-01-17T05:35:04.258Z,102198
2017-01-17T05:36:04.011Z,102197
2017-01-17T05:37:04.018Z,102200
2017-01-17T05:38:04.610Z,102204
2017-01-17T05:39:04.118Z,102206
2017-01-17T05:40:04.134Z,102207
2017-01-17T05:41:04.691Z,102211
2017-01-17T05:42:04.215Z,102208
2017-01-17T05:43:04.759Z,102212
2017-01-17T05:44:04.801Z,102212
2017-01-17T05:45:04.896Z,102211
2017-01-17T05:46:04.913Z,102212
2017-01-17T05:47:04.468Z,102215
2017-01-17T05:48:05.028Z,102216
2017-01-17T05:49:04.995Z,102220
2017-01-17T05:50:04.552Z,102222
2017-01-17T05:51:04.582Z,102226
2017-01-17T05:52:05.219Z,102218
2017-01-17T05:53:05.246Z,102219
2017-01-17T05:54:04.703Z,102224
2017-01-17T05:55:05.372Z,102225
2017-01-17T05:56:05.358Z,102227
2017-01-17T05:57:05.427Z,102228
2017-01-17T05:58:05.487Z,102230
2017-01-17T05:59:05.611Z,102232
2017-01-17T06:00:05.170Z,102229
2017-01-17T06:01:05.700Z,102231
2017-01-17T06:02:05.700Z,102233
2017-01-17T06:03:05.255Z,102231
2017-01-17T06:04:05.309Z,102231
2017-01-17T06:05:05.880Z,102233
2017-01-17T06:06:05.442Z,102227
2017-01-17T06:07:06.054Z,102237
2017-01-17T06:08:06.163Z,102237
2017-01-17T06:09:06.166Z,102231
2017-01-17T06:10:05.614Z,102238
2017-01-17T06:11:06.254Z,102238
2017-01-17T06:12:05.758Z,102243
2017-01-17T06:13:05.777Z,102244
2017-01-17T06:14:05.849Z,102254
2017-01-17T06:15:05.862Z,102257
2017-01-17T06:16:06.475Z,102251
2017-01-17T06:17:06.007Z,102257
2017-01-17T06:18:06.551Z,102263
2017-01-17T06:19:06.596Z,102260
2017-01-17T06:20:06.137Z,102264
2017-01-17T06:21:06.867Z,102267
2017-01-17T06:22:06.213Z,102265
2017-01-17T06:23:06.279Z,102275
2017-01-17T06:24:06.353Z,102276
2017-01-17T06:25:07.005Z,102270
2017-01-17T06:26:06.484Z,102277
2017-01-17T06:27:06.665Z,102278
2017-01-17T06:28:07.150Z,102275
2017-01-17T06:29:06.566Z,102282
2017-01-17T06:30:07.142Z,102285
2017-01-17T06:31:07.201Z,102283
2017-01-17T06:32:07.327Z,102287
2017-01-17T06:33:06.875Z,102282
2017-01-17T06:34:06.942Z,102285
2017-01-17T06:35:06.978Z,102278
2017-01-17T06:36:07.584Z,102284
2017-01-17T06:37:07.085Z,102277
2017-01-17T06:38:07.092Z,102283
2017-01-17T06:39:07.582Z,102280
2017-01-17T06:40:07.626Z,102287
2017-01-17T06:41:08.279Z,102284
2017-01-17T06:42:07.851Z,102274
2017-01-17T06:43:07.327Z,102282
2017-01-17T06:44:07.898Z,102282
2017-01-17T06:45:07.889Z,102282
2017-01-17T06:46:07.965Z,102283
2017-01-17T06:47:07.510Z,102287
2017-01-17T06:48:08.068Z,102288
2017-01-17T06:49:07.589Z,102284
2017-01-17T06:50:07.738Z,102286
2017-01-17T06:51:08.303Z,102289
2017-01-17T06:52:08.335Z,102290
2017-01-17T06:53:07.824Z,102293
2017-01-17T06:54:07.777Z,102289
2017-01-17T06:55:08.362Z,102291
2017-01-17T06:56:09.414Z,102294
2017-01-17T06:57:09.035Z,102295
2017-01-17T06:58:07.911Z,102299
2017-01-17T06:59:08.544Z,102300
2017-01-17T07:00:08.028Z,102301
2017-01-17T07:01:08.062Z,102301
2017-01-17T07:02:08.661Z,102303
2017-01-17T07:03:08.741Z,102311
2017-01-17T07:04:08.724Z,102314
2017-01-17T07:05:08.230Z,102316
2017-01-17T07:06:08.297Z,102316
2017-01-17T07:07:08.296Z,102321
2017-01-17T07:08:08.388Z,102318
2017-01-17T07:09:08.922Z,102318
2017-01-17T07:10:08.991Z,102323
2017-01-17T07:11:08.475Z,102325
2017-01-17T07:12:09.027Z,102326
2017-01-17T07:13:09.173Z,102326
2017-01-17T07:14:09.192Z,102328
2017-01-17T07:15:09.266Z,102325
2017-01-17T07:16:08.723Z,102322
2017-01-17T07:17:09.523Z,102328
2017-01-17T07:18:09.302Z,102331
2017-01-17T07:19:09.393Z,102328
2017-01-17T07:20:09.429Z,102332
2017-01-17T07:21:09.026Z,102329
2017-01-17T07:22:09.010Z,102329
2017-01-17T07:23:09.637Z,102328
2017-01-17T07:24:09.091Z,102330
2017-01-17T07:25:09.737Z,102326
2017-01-17T07:26:09.864Z,102333
2017-01-17T07:27:09.846Z,102329
2017-01-17T07:28:09.379Z,102330
2017-01-17T07:29:09.980Z,102331
2017-01-17T07:30:10.026Z,102337
2017-01-17T07:31:10.116Z,102333
2017-01-17T07:32:09.575Z,102337
2017-01-17T07:33:10.186Z,102335
2017-01-17T07:34:10.211Z,102329
2017-01-17T07:35:09.768Z,102333
2017-01-17T07:36:09.795Z,102337
2017-01-17T07:37:09.792Z,102337
2017-01-17T07:38:09.931Z,102337
2017-01-17T07:39:09.828Z,102338
2017-01-17T07:40:10.405Z,102337
2017-01-17T07:41:10.455Z,102339
2017-01-17T07:42:10.563Z,102336
2017-01-17T07:43:11.242Z,102343
2017-01-17T07:44:11.391Z,102349
2017-01-17T07:45:10.719Z,102356
2017-01-17T07:46:10.217Z,102356
2017-01-17T07:47:11.435Z,102354
2017-01-17T07:48:10.833Z,102358
2017-01-17T07:49:10.802Z,102353
2017-01-17T07:50:10.820Z,102359
2017-01-17T07:51:10.323Z,102351
2017-01-17T07:52:10.476Z,102359
2017-01-17T07:53:10.557Z,102362
2017-01-17T07:54:11.136Z,102358
2017-01-17T07:55:11.252Z,102360
2017-01-17T07:56:11.288Z,102360
2017-01-17T07:57:11.253Z,102368
2017-01-17T07:58:10.826Z,102366
2017-01-17T07:59:10.817Z,102367
2017-01-17T08:00:11.483Z,102368
2017-01-17T08:01:10.835Z,102363
2017-01-17T08:02:11.533Z,102364
2017-01-17T08:03:11.514Z,102362
2017-01-17T08:04:11.606Z,102366
2017-01-17T08:05:11.104Z,102368
2017-01-17T08:06:11.610Z,102367
2017-01-17T08:07:11.629Z,102370
2017-01-17T08:08:12.445Z,102369
2017-01-17T08:09:11.249Z,102373
2017-01-17T08:10:11.779Z,102370
2017-01-17T08:11:12.593Z,102373
2017-01-17T08:12:24.904Z,102382
2017-01-17T08:13:13.338Z,102370
2017-01-17T08:14:13.946Z,102370
2017-01-17T08:15:13.406Z,102377
2017-01-17T08:16:29.041Z,102372
2017-01-17T08:17:18.202Z,102375
2017-01-17T08:18:17.606Z,102376
2017-01-17T08:19:26.837Z,102382
2017-01-17T08:20:18.241Z,102372
2017-01-17T08:21:18.340Z,102370
2017-01-17T08:22:18.415Z,102376
2017-01-17T08:23:17.878Z,102375
2017-01-17T08:24:17.996Z,102376
2017-01-17T08:25:19.825Z,102378
2017-01-17T08:26:19.180Z,102376
2017-01-17T08:27:18.072Z,102382
2017-01-17T08:28:18.908Z,102380
2017-01-17T08:29:18.761Z,102379
2017-01-17T08:30:18.215Z,102375
2017-01-17T08:31:18.273Z,102381
2017-01-17T08:32:18.800Z,102382
2017-01-17T08:33:18.860Z,102385
2017-01-17T08:34:18.386Z,102388
2017-01-17T08:35:19.440Z,102372
2017-01-17T08:36:18.887Z,102377
2017-01-17T08:37:18.481Z,102387
2017-01-17T08:38:21.282Z,102375
2017-01-17T08:39:21.966Z,102374
2017-01-17T08:40:19.313Z,102377
2017-01-17T08:41:19.294Z,102370
2017-01-17T08:42:18.796Z,102379
2017-01-17T08:43:19.412Z,102389
2017-01-17T08:44:19.071Z,102380
2017-01-17T08:45:19.052Z,102383
2017-01-17T08:46:19.817Z,102387
2017-01-17T08:47:19.158Z,102385
2017-01-17T08:48:19.151Z,102386
2017-01-17T08:49:19.245Z,102388
2017-01-17T08:50:19.809Z,102386
2017-01-17T08:51:20.435Z,102381
2017-01-17T08:52:20.417Z,102395
2017-01-17T08:53:20.035Z,102387
2017-01-17T08:54:22.474Z,102387
2017-01-17T08:55:19.448Z,102388
2017-01-17T08:56:19.552Z,102396
2017-01-17T08:57:19.586Z,102392
2017-01-17T08:58:19.636Z,102385
2017-01-17T08:59:20.338Z,102386
2017-01-17T09:00:20.353Z,102389
2017-01-17T09:01:20.363Z,102393
2017-01-17T09:02:19.885Z,102391
2017-01-17T09:03:19.931Z,102390
2017-01-17T09:04:20.468Z,102397
2017-01-17T09:05:20.605Z,102394
2017-01-17T09:06:20.088Z,102400
2017-01-17T09:07:20.607Z,102397
2017-01-17T09:08:20.729Z,102396
2017-01-17T09:09:20.681Z,102400
2017-01-17T09:10:20.222Z,102407
2017-01-17T09:11:20.924Z,102397
2017-01-17T09:12:20.983Z,102401
2017-01-17T09:13:21.550Z,102400
2017-01-17T09:14:20.637Z,102403
2017-01-17T09:15:21.185Z,102403
2017-01-17T09:16:20.648Z,102406
2017-01-17T09:17:21.543Z,102410
2017-01-17T09:18:21.311Z,102414
2017-01-17T09:19:20.932Z,102410
2017-01-17T09:20:21.491Z,102415
2017-01-17T09:21:20.983Z,102412
2017-01-17T09:22:21.021Z,102418
2017-01-17T09:23:21.051Z,102418
2017-01-17T09:24:21.802Z,102413
2017-01-17T09:25:21.247Z,102420
2017-01-17T09:26:21.294Z,102422
2017-01-17T09:27:25.728Z,102419
2017-01-17T09:28:21.906Z,102413
2017-01-17T09:29:21.430Z,102418
2017-01-17T09:30:22.844Z,102412
2017-01-17T09:31:22.765Z,102423
2017-01-17T09:32:22.134Z,102420
2017-01-17T09:33:22.231Z,102425
2017-01-17T09:34:21.693Z,102420
2017-01-17T09:35:22.280Z,102426
2017-01-17T09:36:22.381Z,102422
2017-01-17T09:37:21.872Z,102430
2017-01-17T09:38:23.096Z,102425
2017-01-17T09:39:23.065Z,102425
2017-01-17T09:40:22.575Z,102426
2017-01-17T09:41:22.657Z,102431
2017-01-17T09:42:22.864Z,102427
2017-01-17T09:43:23.669Z,102428
2017-01-17T09:44:22.765Z,102430
2017-01-17T09:45:22.841Z,102430
2017-01-17T09:46:22.444Z,102412
2017-01-17T09:47:23.278Z,102435
2017-01-17T09:48:23.009Z,102431
2017-01-17T09:49:23.064Z,102434
2017-01-17T09:50:22.813Z,102438
2017-01-17T09:51:23.263Z,102440
2017-01-17T09:52:23.405Z,102441
2017-01-17T09:53:24.175Z,102442
2017-01-17T09:54:22.808Z,102447
2017-01-17T09:55:22.894Z,102454
2017-01-17T09:56:22.899Z,102452
2017-01-17T09:57:23.977Z,102453
2017-01-17T09:58:23.608Z,102450
2017-01-17T09:59:23.549Z,102456
2017-01-17T10:00:23.696Z,102453
2017-01-17T10:01:23.662Z,102458
2017-01-17T10:02:23.671Z,102452
2017-01-17T10:03:23.275Z,102463
2017-01-17T10:04:24.692Z,102457
2017-01-17T10:05:24.628Z,102457
2017-01-17T10:06:23.325Z,102460
2017-01-17T10:07:23.894Z,102461
2017-01-17T10:08:25.192Z,102453
2017-01-17T10:09:24.124Z,102457
2017-01-17T10:10:24.595Z,102452
2017-01-17T10:11:24.077Z,102453
2017-01-17T10:12:23.622Z,102450
2017-01-17T10:13:24.333Z,102456
2017-01-17T10:14:24.272Z,102458
2017-01-17T10:15:23.798Z,102456
2017-01-17T10:16:24.376Z,102453
2017-01-17T10:17:25.719Z,102450
2017-01-17T10:18:24.442Z,102449
2017-01-17T10:19:24.501Z,102446
2017-01-17T10:20:23.931Z,102453
2017-01-17T10:21:24.496Z,102453
2017-01-17T10:22:24.550Z,102458
2017-01-17T10:23:24.491Z,102454
2017-01-17T10:24:24.539Z,102450
2017-01-17T10:25:24.576Z,102459
2017-01-17T10:26:24.624Z,102454
2017-01-17T10:27:24.675Z,102456
2017-01-17T10:28:24.219Z,102458
2017-01-17T10:29:24.281Z,102457
2017-01-17T10:30:24.209Z,102454
2017-01-17T10:31:24.827Z,102459
2017-01-17T10:32:24.995Z,102453
2017-01-17T10:33:24.416Z,102452
2017-01-17T10:34:24.597Z,102452
2017-01-17T10:35:25.105Z,102453
2017-01-17T10:36:25.168Z,102462
2017-01-17T10:37:25.814Z,102452
2017-01-17T10:38:25.241Z,102450
2017-01-17T10:39:25.262Z,102449
2017-01-17T10:40:26.177Z,102450
2017-01-17T10:41:24.889Z,102446
2017-01-17T10:42:25.462Z,102446
2017-01-17T10:43:25.542Z,102452
2017-01-17T10:44:25.064Z,102450
2017-01-17T10:45:25.584Z,102456
2017-01-17T10:46:25.562Z,102454
2017-01-17T10:47:25.680Z,102455
2017-01-17T10:48:25.076Z,102453
2017-01-17T10:49:25.080Z,102459
2017-01-17T10:50:25.119Z,102458
2017-01-17T10:51:25.216Z,102464
2017-01-17T10:52:25.827Z,102466
2017-01-17T10:53:25.311Z,102467
2017-01-17T10:54:25.325Z,102470
2017-01-17T10:55:27.181Z,102465
2017-01-17T10:56:25.958Z,102461
2017-01-17T10:57:26.036Z,102467
2017-01-17T10:58:26.121Z,102465
2017-01-17T10:59:26.138Z,102466
2017-01-17T11:00:26.239Z,102464
2017-01-17T11:01:25.646Z,102468
2017-01-17T11:02:27.176Z,102467
2017-01-17T11:03:26.396Z,102468
2017-01-17T11:04:27.182Z,102452
2017-01-17T11:05:25.987Z,102468
2017-01-17T11:06:26.622Z,102473
2017-01-17T11:07:26.187Z,102473
2017-01-17T11:08:27.167Z,102471
2017-01-17T11:09:26.752Z,102473
2017-01-17T11:10:26.857Z,102476
2017-01-17T11:11:26.336Z,102474
2017-01-17T11:12:30.292Z,102471
2017-01-17T11:13:27.939Z,102477
2017-01-17T11:14:27.056Z,102467
2017-01-17T11:15:26.525Z,102481
2017-01-17T11:16:26.688Z,102479
2017-01-17T11:17:31.084Z,102481
2017-01-17T11:18:26.783Z,102482
2017-01-17T11:19:27.389Z,102474
2017-01-17T11:20:26.793Z,102482
2017-01-17T11:21:28.922Z,102481
2017-01-17T11:22:45.151Z,102480
2017-01-17T11:23:45.720Z,102475
2017-01-17T11:24:45.681Z,102481
2017-01-17T11:25:45.223Z,102475
2017-01-17T11:26:45.736Z,102479
2017-01-17T11:28:23.965Z,102482
2017-01-17T11:29:23.886Z,102485
2017-01-17T11:30:23.969Z,102476
2017-01-17T11:31:23.558Z,102485
2017-01-17T11:32:23.647Z,102484
2017-01-17T11:33:23.698Z,102488
2017-01-17T11:34:24.883Z,102478
2017-01-17T11:35:24.297Z,102479
2017-01-17T11:36:24.384Z,102481
2017-01-17T11:37:24.351Z,102493
2017-01-17T11:38:26.086Z,102491
2017-01-17T11:39:25.628Z,102490
2017-01-17T11:40:24.546Z,102491
2017-01-17T11:41:24.551Z,102488
2017-01-17T11:42:24.634Z,102489
2017-01-17T11:43:24.100Z,102487
2017-01-17T11:44:24.719Z,102487
2017-01-17T11:45:24.247Z,102489
2017-01-17T11:46:25.568Z,102493
2017-01-17T11:47:24.896Z,102490
2017-01-17T11:48:25.117Z,102484
2017-01-17T11:49:24.987Z,102490
2017-01-17T11:50:25.717Z,102486
2017-01-17T11:51:25.784Z,102491
2017-01-17T11:52:24.625Z,102486
2017-01-17T11:53:25.788Z,102490
2017-01-17T11:54:24.749Z,102490
2017-01-17T11:55:25.933Z,102478
2017-01-17T11:56:25.406Z,102479
2017-01-17T11:57:26.012Z,102479
2017-01-17T11:58:26.077Z,102476
2017-01-17T11:59:25.525Z,102469
2017-01-17T12:00:25.595Z,102478
2017-01-17T12:01:25.812Z,102486
2017-01-17T12:02:25.177Z,102477
2017-01-17T12:03:25.179Z,102475
2017-01-17T12:04:26.255Z,102474
2017-01-17T12:05:28.630Z,102482
2017-01-17T12:06:27.076Z,102477
2017-01-17T12:07:26.404Z,102481
2017-01-17T12:08:26.926Z,102483
2017-01-17T12:09:25.479Z,102482
2017-01-17T12:10:26.026Z,102480
2017-01-17T12:11:25.493Z,102474
2017-01-17T12:12:26.161Z,102486
2017-01-17T12:13:26.177Z,102486
2017-01-17T12:14:25.687Z,102481
2017-01-17T12:15:25.768Z,102485
2017-01-17T12:16:26.517Z,102484
2017-01-17T12:17:25.961Z,102487
2017-01-17T12:18:26.522Z,102483
2017-01-17T12:19:26.538Z,102492
2017-01-17T12:20:26.138Z,102488
2017-01-17T12:21:26.097Z,102488
2017-01-17T12:22:26.714Z,102492
2017-01-17T12:23:27.462Z,102493
2017-01-17T12:24:27.501Z,102493
2017-01-17T12:25:26.306Z,102495
2017-01-17T12:26:27.087Z,102487
2017-01-17T12:27:26.981Z,102494
2017-01-17T12:28:27.239Z,102489
2017-01-17T12:29:26.552Z,102491
2017-01-17T12:30:27.750Z,102489